createdAt,value
2022-08-01T00:01:51.228Z,101016.50
2022-08-01T00:04:20.329Z,101021.94
2022-08-01T00:06:49.255Z,101021.06
2022-08-01T00:09:24.355Z,101020.22
2022-08-01T00:12:06.658Z,101020.22
2022-08-01T00:14:35.465Z,101010.38
2022-08-01T00:17:07.451Z,101006.28
2022-08-01T00:19:36.688Z,101008.66
2022-08-01T00:22:05.772Z,101001.31
2022-08-01T00:24:35.246Z,101001.81
2022-08-01T00:27:05.807Z,100992.66
2022-08-01T00:30:09.765Z,100990.66
2022-08-01T00:32:23.533Z,100992.00
2022-08-01T00:34:53.192Z,100982.00
2022-08-01T00:37:21.950Z,100980.00
2022-08-01T00:39:50.736Z,100978.13
2022-08-01T00:42:21.407Z,100982.88
2022-08-01T00:44:51.401Z,100979.16
2022-08-01T00:47:20.058Z,100980.09
2022-08-01T00:49:48.871Z,100981.50
2022-08-01T00:52:17.833Z,100974.38
2022-08-01T00:54:47.681Z,100975.72
2022-08-01T00:57:16.672Z,100972.72
2022-08-01T01:00:09.469Z,100972.00
2022-08-01T01:02:39.098Z,100976.09
2022-08-01T01:05:09.481Z,100971.34
2022-08-01T01:07:50.507Z,100976.78
2022-08-01T01:10:25.154Z,100981.22
2022-08-01T01:13:04.144Z,100975.94
2022-08-01T01:15:43.991Z,100969.81
2022-08-01T01:18:20.140Z,100972.38
2022-08-01T01:21:03.570Z,100971.69
2022-08-01T01:23:57.002Z,100963.88
2022-08-01T01:26:42.438Z,100961.16
2022-08-01T01:29:19.469Z,100966.06
2022-08-01T01:31:54.755Z,100957.72
2022-08-01T01:34:26.083Z,100963.16
2022-08-01T01:36:59.456Z,100961.28
2022-08-01T01:39:32.372Z,100959.03
2022-08-01T01:42:03.913Z,100956.81
2022-08-01T01:44:35.067Z,100961.41
2022-08-01T01:47:05.548Z,100957.16
2022-08-01T01:49:36.098Z,100954.28
2022-08-01T01:52:07.815Z,100952.56
2022-08-01T01:54:43.592Z,100951.09
2022-08-01T01:57:15.453Z,100958.88
2022-08-01T01:59:50.148Z,100951.59
2022-08-01T02:02:21.494Z,100954.31
2022-08-01T02:04:51.269Z,100957.03
2022-08-01T02:07:28.954Z,100955.69
2022-08-01T02:09:59.779Z,100954.66
2022-08-01T02:12:32.083Z,100948.38
2022-08-01T02:15:04.591Z,100943.50
2022-08-01T02:17:39.392Z,100950.63
2022-08-01T02:20:10.001Z,100942.50
2022-08-01T02:22:46.966Z,100952.31
2022-08-01T02:25:28.149Z,100943.16
2022-08-01T02:28:04.831Z,100942.50
2022-08-01T02:30:38.324Z,100944.56
2022-08-01T02:33:16.245Z,100944.88
2022-08-01T02:36:32.258Z,100939.28
2022-08-01T02:38:47.164Z,100938.44
2022-08-01T02:41:23.337Z,100939.13
2022-08-01T02:44:01.302Z,100936.22
2022-08-01T02:46:40.932Z,100937.94
2022-08-01T02:49:13.479Z,100945.38
2022-08-01T02:51:46.133Z,100952.50
2022-08-01T02:54:19.669Z,100946.06
2022-08-01T02:56:50.723Z,100948.09
2022-08-01T02:59:26.732Z,100949.63
2022-08-01T03:01:58.549Z,100939.78
2022-08-01T03:04:30.572Z,100941.50
2022-08-01T03:07:01.143Z,100944.91
2022-08-01T03:09:33.208Z,100945.75
2022-08-01T03:12:07.379Z,100958.47
2022-08-01T03:14:42.207Z,100957.63
2022-08-01T03:17:13.979Z,100942.00
2022-08-01T03:19:47.058Z,100953.56
2022-08-01T03:22:18.942Z,100941.19
2022-08-01T03:24:53.486Z,100945.56
2022-08-01T03:27:25.497Z,100947.13
2022-08-01T03:29:58.524Z,100957.81
2022-08-01T03:32:32.273Z,100953.75
2022-08-01T03:35:01.360Z,100945.59
2022-08-01T03:37:49.563Z,100948.16
2022-08-01T03:40:33.261Z,100957.66
2022-08-01T03:43:09.709Z,100963.25
2022-08-01T03:45:44.472Z,100962.94
2022-08-01T03:48:20.410Z,100954.13
2022-08-01T03:50:55.135Z,100958.56
2022-08-01T03:53:31.002Z,100956.34
2022-08-01T03:56:04.622Z,100956.34
2022-08-01T03:58:34.458Z,100964.34
2022-08-01T04:01:04.510Z,100958.56
2022-08-01T04:03:41.983Z,100959.78
2022-08-01T04:06:12.336Z,100961.13
2022-08-01T04:08:42.691Z,100967.94
2022-08-01T04:11:12.124Z,100971.50
2022-08-01T04:13:40.886Z,100982.38
2022-08-01T04:16:13.279Z,100979.34
2022-08-01T04:18:43.712Z,100982.06
2022-08-01T04:21:13.303Z,100976.63
2022-08-01T04:23:46.789Z,100984.28
2022-08-01T04:26:24.443Z,100988.34
2022-08-01T04:28:56.087Z,100990.88
2022-08-01T04:31:28.496Z,100979.13
2022-08-01T04:34:02.896Z,100986.16
2022-08-01T04:36:35.691Z,100992.91
2022-08-01T04:39:06.954Z,100996.50
2022-08-01T04:41:38.220Z,100988.81
2022-08-01T04:44:08.073Z,100995.78
2022-08-01T04:46:39.304Z,100995.78
2022-08-01T04:49:11.726Z,100997.66
2022-08-01T04:51:53.663Z,101002.06
2022-08-01T04:54:22.695Z,101003.78
2022-08-01T04:56:54.953Z,101010.91
2022-08-01T04:59:44.812Z,101016.91
2022-08-01T05:02:17.815Z,101017.41
2022-08-01T05:04:49.333Z,101009.63
2022-08-01T05:07:19.135Z,101014.72
2022-08-01T05:09:48.405Z,101014.00
2022-08-01T05:12:17.290Z,101021.16
2022-08-01T05:14:47.217Z,101022.16
2022-08-01T05:17:15.968Z,101028.28
2022-08-01T05:19:45.298Z,101023.88
2022-08-01T05:22:15.454Z,101028.44
2022-08-01T05:24:44.764Z,101031.38
2022-08-01T05:27:15.624Z,101030.16
2022-08-01T05:29:45.326Z,101031.00
2022-08-01T05:32:14.459Z,101030.34
2022-08-01T05:34:43.310Z,101030.38
2022-08-01T05:37:12.887Z,101042.44
2022-08-01T05:39:43.351Z,101035.28
2022-08-01T05:42:14.461Z,101029.16
2022-08-01T05:44:44.452Z,101045.00
2022-08-01T05:47:13.292Z,101039.56
2022-08-01T05:49:42.251Z,101038.88
2022-08-01T05:52:11.567Z,101036.81
2022-08-01T05:54:42.796Z,101031.75
2022-08-01T05:57:15.291Z,101031.06
2022-08-01T05:59:45.175Z,101045.31
2022-08-01T06:02:14.610Z,101037.81
2022-08-01T06:04:43.633Z,101034.03
2022-08-01T06:07:12.419Z,101033.31
2022-08-01T06:09:46.386Z,101031.94
2022-08-01T06:12:15.687Z,101035.00
2022-08-01T06:14:44.504Z,101033.81
2022-08-01T06:17:13.249Z,101032.97
2022-08-01T06:19:42.146Z,101023.81
2022-08-01T06:22:11.434Z,101037.78
2022-08-01T06:24:40.540Z,101046.63
2022-08-01T06:27:21.470Z,101040.91
2022-08-01T06:29:53.922Z,101055.16
2022-08-01T06:32:27.305Z,101043.44
2022-08-01T06:34:57.683Z,101051.09
2022-08-01T06:37:33.237Z,101054.50
2022-08-01T06:40:04.256Z,101061.97
2022-08-01T06:42:36.929Z,101065.72
2022-08-01T06:45:07.762Z,101059.41
2022-08-01T06:47:37.227Z,101059.56
2022-08-01T06:50:09.640Z,101062.28
2022-08-01T06:52:40.217Z,101052.47
2022-08-01T06:55:10.742Z,101057.56
2022-08-01T06:57:49.237Z,101065.75
2022-08-01T07:00:23.477Z,101052.81
2022-08-01T07:02:54.013Z,101054.38
2022-08-01T07:05:24.646Z,101061.00
2022-08-01T07:07:53.880Z,101051.59
2022-08-01T07:10:23.055Z,101056.47
2022-08-01T07:12:53.270Z,101044.66
2022-08-01T07:15:27.424Z,101042.81
2022-08-01T07:17:58.193Z,101026.53
2022-08-01T07:20:27.202Z,101026.53
2022-08-01T07:22:56.551Z,101038.31
2022-08-01T07:25:25.785Z,101034.88
2022-08-01T07:27:56.397Z,101037.66
2022-08-01T07:30:27.403Z,101036.50
2022-08-01T07:32:56.511Z,101044.34
2022-08-01T07:35:25.553Z,101047.38
2022-08-01T07:37:54.966Z,101052.97
2022-08-01T07:40:24.525Z,101049.59
2022-08-01T07:42:55.089Z,101047.03
2022-08-01T07:45:24.205Z,101056.91
2022-08-01T07:47:53.254Z,101058.56
2022-08-01T07:50:56.231Z,101062.28
2022-08-01T07:53:27.802Z,101074.03
2022-08-01T07:56:06.434Z,101068.41
2022-08-01T07:58:41.729Z,101085.44
2022-08-01T08:01:10.996Z,101069.44
2022-08-01T08:03:43.645Z,101080.00
2022-08-01T08:06:12.467Z,101092.97
2022-08-01T08:08:43.653Z,101104.88
2022-08-01T08:11:13.807Z,101102.88
2022-08-01T08:13:44.684Z,101101.28
2022-08-01T08:16:14.215Z,101109.78
2022-08-01T08:18:45.415Z,101098.00
2022-08-01T08:21:14.259Z,101098.53
2022-08-01T08:24:08.107Z,101093.59
2022-08-01T08:26:39.060Z,101099.72
2022-08-01T08:29:11.368Z,101097.88
2022-08-01T08:31:50.881Z,101105.06
2022-08-01T08:34:24.997Z,101091.66
2022-08-01T08:36:55.832Z,101105.88
2022-08-01T08:39:26.245Z,101107.75
2022-08-01T08:41:56.769Z,101112.50
2022-08-01T08:44:27.679Z,101122.53
2022-08-01T08:46:58.855Z,101119.81
2022-08-01T08:49:35.606Z,101123.56
2022-08-01T08:52:09.118Z,101121.56
2022-08-01T08:54:41.805Z,101127.66
2022-08-01T08:57:15.283Z,101126.28
2022-08-01T08:59:47.650Z,101121.50
2022-08-01T09:02:16.908Z,101125.16
2022-08-01T09:04:51.606Z,101116.63
2022-08-01T09:07:21.002Z,101109.09
2022-08-01T09:09:51.561Z,101121.25
2022-08-01T09:12:22.123Z,101113.84
2022-08-01T09:14:54.834Z,101105.88
2022-08-01T09:17:24.177Z,101109.75
2022-08-01T09:19:57.861Z,101114.34
2022-08-01T09:22:28.624Z,101111.88
2022-08-01T09:25:03.975Z,101123.66
2022-08-01T09:27:33.929Z,101132.91
2022-08-01T09:30:19.197Z,101137.19
2022-08-01T09:32:59.435Z,101149.94
2022-08-01T09:35:36.205Z,101161.25
2022-08-01T09:38:17.951Z,101162.97
2022-08-01T09:40:53.270Z,101168.38
2022-08-01T09:43:25.021Z,101163.56
2022-08-01T09:45:58.450Z,101177.34
2022-08-01T09:48:29.487Z,101186.59
2022-08-01T09:51:07.077Z,101186.25
2022-08-01T09:53:51.693Z,101185.41
2022-08-01T09:56:24.041Z,101185.09
2022-08-01T09:59:01.717Z,101193.25
2022-08-01T10:01:47.107Z,101192.34
2022-08-01T10:04:19.974Z,101197.25
2022-08-01T10:07:02.955Z,101203.69
2022-08-01T10:09:40.620Z,101211.50
2022-08-01T10:12:15.922Z,101217.31
2022-08-01T10:14:50.749Z,101216.50
2022-08-01T10:17:22.680Z,101222.59
2022-08-01T10:19:55.833Z,101219.88
2022-08-01T10:22:31.205Z,101216.69
2022-08-01T10:25:07.246Z,101222.91
2022-08-01T10:27:40.559Z,101217.50
2022-08-01T10:30:20.152Z,101214.06
2022-08-01T10:32:55.444Z,101215.47
2022-08-01T10:35:47.333Z,101205.13
2022-08-01T10:38:18.239Z,101207.53
2022-08-01T10:40:47.816Z,101203.50
2022-08-01T10:43:21.662Z,101208.75
2022-08-01T10:45:53.444Z,101204.94
2022-08-01T10:48:35.709Z,101208.59
2022-08-01T10:51:18.117Z,101208.09
2022-08-01T10:53:54.712Z,101216.38
2022-08-01T10:56:45.084Z,101230.31
2022-08-01T10:59:49.631Z,101233.63
2022-08-01T11:02:13.388Z,101235.97
2022-08-01T11:04:57.258Z,101235.75
2022-08-01T11:07:47.330Z,101234.50
2022-08-01T11:10:28.723Z,101229.34
2022-08-01T11:12:58.459Z,101247.25
2022-08-01T11:15:29.611Z,101245.81
2022-08-01T11:18:27.477Z,101241.53
2022-08-01T11:21:57.911Z,101256.72
2022-08-01T11:23:56.024Z,101263.97
2022-08-01T11:26:29.417Z,101262.59
2022-08-01T11:29:22.883Z,101258.97
2022-08-01T11:31:54.349Z,101262.06
2022-08-01T11:34:56.654Z,101264.09
2022-08-01T11:37:31.782Z,101270.38
2022-08-01T11:40:24.970Z,101273.72
2022-08-01T11:43:21.261Z,101268.19
2022-08-01T11:45:51.891Z,101279.56
2022-08-01T11:48:23.380Z,101276.34
2022-08-01T11:51:02.007Z,101275.19
2022-08-01T11:53:34.425Z,101272.94
2022-08-01T11:56:06.691Z,101277.28
2022-08-01T11:58:35.895Z,101293.66
2022-08-01T12:01:05.215Z,101277.50
2022-08-01T12:03:36.744Z,101277.84
2022-08-01T12:06:06.015Z,101280.97
2022-08-01T12:08:38.067Z,101286.91
2022-08-01T12:11:07.651Z,101286.44
2022-08-01T12:13:45.865Z,101277.72
2022-08-01T12:16:15.786Z,101288.91
2022-08-01T12:18:46.910Z,101297.47
2022-08-01T12:21:16.263Z,101285.47
2022-08-01T12:23:47.417Z,101298.13
2022-08-01T12:26:28.488Z,101289.88
2022-08-01T12:29:01.291Z,101286.28
2022-08-01T12:31:36.535Z,101293.25
2022-08-01T12:34:35.204Z,101292.78
2022-08-01T12:37:09.627Z,101285.91
2022-08-01T12:39:48.934Z,101291.16
2022-08-01T12:42:28.912Z,101288.28
2022-08-01T12:45:01.348Z,101284.47
2022-08-01T12:47:30.862Z,101295.25
2022-08-01T12:50:00.251Z,101290.03
2022-08-01T12:52:29.508Z,101294.63
2022-08-01T12:55:18.612Z,101295.31
2022-08-01T12:57:51.503Z,101300.94
2022-08-01T13:00:25.570Z,101306.66
2022-08-01T13:03:06.807Z,101306.38
2022-08-01T13:05:57.059Z,101303.22
2022-08-01T13:08:31.576Z,101306.56
2022-08-01T13:11:08.044Z,101307.38
2022-08-01T13:13:52.675Z,101315.63
2022-08-01T13:16:49.190Z,101314.91
2022-08-01T13:19:23.386Z,101306.69
2022-08-01T13:22:03.542Z,101306.16
2022-08-01T13:24:34.423Z,101303.28
2022-08-01T13:27:10.822Z,101309.03
2022-08-01T13:29:43.968Z,101306.09
2022-08-01T13:32:29.758Z,101320.69
2022-08-01T13:35:05.465Z,101309.44
2022-08-01T13:37:41.683Z,101313.69
2022-08-01T13:40:14.306Z,101304.38
2022-08-01T13:42:47.096Z,101301.84
2022-08-01T13:45:20.354Z,101302.69
2022-08-01T13:48:03.835Z,101302.69
2022-08-01T13:50:42.217Z,101303.53
2022-08-01T13:53:12.198Z,101311.59
2022-08-01T13:55:43.470Z,101312.84
2022-08-01T13:58:14.742Z,101309.63
2022-08-01T14:00:44.097Z,101315.38
2022-08-01T14:03:13.803Z,101305.66
2022-08-01T14:05:43.641Z,101296.78
2022-08-01T14:08:15.483Z,101301.03
2022-08-01T14:10:46.118Z,101302.72
2022-08-01T14:13:17.369Z,101297.44
2022-08-01T14:15:46.332Z,101300.59
2022-08-01T14:18:15.417Z,101305.22
2022-08-01T14:20:46.090Z,101297.59
2022-08-01T14:23:15.542Z,101304.44
2022-08-01T14:26:00.387Z,101305.03
2022-08-01T14:28:36.407Z,101310.31
2022-08-01T14:31:07.425Z,101320.25
2022-08-01T14:33:37.205Z,101313.72
2022-08-01T14:36:28.999Z,101319.19
2022-08-01T14:39:00.486Z,101320.81
2022-08-01T14:41:30.830Z,101316.22
2022-08-01T14:44:02.423Z,101310.03
2022-08-01T14:46:31.715Z,101315.41
2022-08-01T14:49:04.037Z,101309.91
2022-08-01T14:51:36.086Z,101315.78
2022-08-01T14:54:06.237Z,101309.84
2022-08-01T14:56:36.553Z,101319.84
2022-08-01T14:59:21.288Z,101319.78
2022-08-01T15:01:51.105Z,101314.03
2022-08-01T15:04:19.873Z,101317.94
2022-08-01T15:06:48.918Z,101310.50
2022-08-01T15:09:18.734Z,101323.41
2022-08-01T15:11:48.951Z,101318.75
2022-08-01T15:14:36.158Z,101317.88
2022-08-01T15:17:05.509Z,101318.97
2022-08-01T15:19:39.027Z,101311.84
2022-08-01T15:22:24.287Z,101317.13
2022-08-01T15:24:57.503Z,101317.91
2022-08-01T15:27:28.230Z,101313.88
2022-08-01T15:29:59.351Z,101310.53
2022-08-01T15:32:28.493Z,101310.78
2022-08-01T15:34:57.609Z,101312.22
2022-08-01T15:37:26.636Z,101317.53
2022-08-01T15:39:56.743Z,101322.59
2022-08-01T15:42:27.139Z,101330.22
2022-08-01T15:44:57.670Z,101325.09
2022-08-01T15:47:26.560Z,101319.19
2022-08-01T15:49:57.018Z,101326.00
2022-08-01T15:52:31.808Z,101325.53
2022-08-01T15:55:03.616Z,101326.41
2022-08-01T15:57:37.673Z,101328.50
2022-08-01T16:00:10.873Z,101331.00
2022-08-01T16:02:39.815Z,101329.50
2022-08-01T16:05:13.644Z,101329.31
2022-08-01T16:07:59.718Z,101333.97
2022-08-01T16:10:32.397Z,101331.88
2022-08-01T16:13:07.099Z,101338.22
2022-08-01T16:15:39.769Z,101331.06
2022-08-01T16:18:13.968Z,101330.84
2022-08-01T16:20:45.814Z,101329.78
2022-08-01T16:23:16.591Z,101330.75
2022-08-01T16:25:47.326Z,101333.31
2022-08-01T16:28:17.530Z,101333.97
2022-08-01T16:31:09.933Z,101335.31
2022-08-01T16:33:55.230Z,101333.34
2022-08-01T16:36:26.095Z,101333.34
2022-08-01T16:38:55.303Z,101341.38
2022-08-01T16:41:24.117Z,101340.84
2022-08-01T16:43:54.567Z,101334.56
2022-08-01T16:46:31.826Z,101336.63
2022-08-01T16:49:01.901Z,101327.41
2022-08-01T16:51:32.635Z,101334.00
2022-08-01T16:54:05.114Z,101330.63
2022-08-01T16:56:55.992Z,101328.97
2022-08-01T16:59:41.197Z,101336.44
2022-08-01T17:02:13.799Z,101333.00
2022-08-01T17:04:43.212Z,101338.22
2022-08-01T17:07:12.142Z,101334.22
2022-08-01T17:09:43.693Z,101336.53
2022-08-01T17:12:14.376Z,101343.72
2022-08-01T17:14:52.112Z,101342.38
2022-08-01T17:17:31.046Z,101348.72
2022-08-01T17:20:00.779Z,101343.19
2022-08-01T17:22:31.927Z,101345.06
2022-08-01T17:25:03.987Z,101355.38
2022-08-01T17:27:33.476Z,101363.19
2022-08-01T17:30:02.505Z,101360.59
2022-08-01T17:32:35.219Z,101365.81
2022-08-01T17:35:04.596Z,101359.66
2022-08-01T17:37:34.155Z,101370.41
2022-08-01T17:40:06.439Z,101373.34
2022-08-01T17:42:54.982Z,101369.31
2022-08-01T17:45:27.469Z,101377.09
2022-08-01T17:48:01.713Z,101378.41
2022-08-01T17:50:34.319Z,101377.41
2022-08-01T17:53:03.105Z,101385.81
2022-08-01T17:55:53.432Z,101380.22
2022-08-01T17:58:36.715Z,101376.75
2022-08-01T18:01:11.980Z,101380.97
2022-08-01T18:03:46.130Z,101377.97
2022-08-01T18:06:19.232Z,101380.22
2022-08-01T18:08:50.493Z,101381.38
2022-08-01T18:11:27.172Z,101384.00
2022-08-01T18:13:59.545Z,101384.53
2022-08-01T18:16:29.988Z,101389.22
2022-08-01T18:19:03.534Z,101384.31
2022-08-01T18:21:33.888Z,101380.38
2022-08-01T18:24:04.800Z,101379.69
2022-08-01T18:26:33.615Z,101391.66
2022-08-01T18:29:03.401Z,101389.72
2022-08-01T18:31:32.142Z,101386.06
2022-08-01T18:34:05.273Z,101391.38
2022-08-01T18:36:36.546Z,101386.81
2022-08-01T18:39:11.663Z,101393.16
2022-08-01T18:41:41.698Z,101388.53
2022-08-01T18:44:11.218Z,101386.28
2022-08-01T18:46:43.065Z,101382.66
2022-08-01T18:49:14.770Z,101393.94
2022-08-01T18:51:45.384Z,101394.38
2022-08-01T18:54:15.140Z,101386.31
2022-08-01T18:56:46.410Z,101391.84
2022-08-01T18:59:15.883Z,101396.53
2022-08-01T19:01:45.469Z,101401.59
2022-08-01T19:04:16.537Z,101394.91
2022-08-01T19:06:47.555Z,101406.09
2022-08-01T19:09:20.657Z,101405.00
2022-08-01T19:11:52.056Z,101403.47
2022-08-01T19:14:23.939Z,101404.50
2022-08-01T19:16:53.082Z,101419.31
2022-08-01T19:19:27.973Z,101419.00
2022-08-01T19:21:58.142Z,101418.44
2022-08-01T19:24:27.542Z,101422.94
2022-08-01T19:27:05.252Z,101429.22
2022-08-01T19:29:42.588Z,101426.38
2022-08-01T19:32:12.591Z,101417.16
2022-08-01T19:34:53.755Z,101427.25
2022-08-01T19:37:27.108Z,101435.22
2022-08-01T19:39:58.976Z,101434.34
2022-08-01T19:42:30.838Z,101433.91
2022-08-01T19:44:59.719Z,101433.47
2022-08-01T19:47:50.850Z,101429.78
2022-08-01T19:50:20.056Z,101434.34
2022-08-01T19:52:53.249Z,101436.47
2022-08-01T19:55:25.303Z,101438.50
2022-08-01T19:58:17.307Z,101435.66
2022-08-01T20:00:44.408Z,101443.47
2022-08-01T20:03:21.173Z,101441.47
2022-08-01T20:05:53.029Z,101441.88
2022-08-01T20:08:23.505Z,101442.31
2022-08-01T20:10:55.263Z,101440.72
2022-08-01T20:13:39.202Z,101446.00
2022-08-01T20:16:09.597Z,101434.28
2022-08-01T20:18:41.721Z,101441.53
2022-08-01T20:21:15.985Z,101437.59
2022-08-01T20:23:47.189Z,101440.00
2022-08-01T20:26:18.859Z,101444.56
2022-08-01T20:28:51.331Z,101440.25
2022-08-01T20:31:28.073Z,101443.34
2022-08-01T20:34:03.826Z,101446.41
2022-08-01T20:36:38.098Z,101448.00
2022-08-01T20:39:08.828Z,101446.59
2022-08-01T20:41:38.685Z,101452.63
2022-08-01T20:44:09.363Z,101458.09
2022-08-01T20:46:40.544Z,101455.25
2022-08-01T20:49:13.490Z,101464.50
2022-08-01T20:51:46.099Z,101460.63
2022-08-01T20:54:15.173Z,101463.63
2022-08-01T20:56:55.756Z,101469.16
2022-08-01T20:59:55.023Z,101463.75
2022-08-01T21:02:48.116Z,101461.66
2022-08-01T21:05:29.570Z,101463.28
2022-08-01T21:08:05.935Z,101467.91
2022-08-01T21:10:38.369Z,101476.13
2022-08-01T21:13:12.028Z,101469.81
2022-08-01T21:16:07.427Z,101469.53
2022-08-01T21:19:16.913Z,101471.16
2022-08-01T21:21:44.759Z,101471.72
2022-08-01T21:24:23.325Z,101481.81
2022-08-01T21:26:55.168Z,101481.81
2022-08-01T21:29:26.853Z,101488.09
2022-08-01T21:32:10.259Z,101498.72
2022-08-01T21:34:42.472Z,101488.41
2022-08-01T21:37:12.467Z,101505.84
2022-08-01T21:39:47.066Z,101494.81
2022-08-01T21:42:19.152Z,101495.34
2022-08-01T21:44:49.701Z,101497.06
2022-08-01T21:47:19.949Z,101506.41
2022-08-01T21:49:49.371Z,101509.56
2022-08-01T21:52:24.668Z,101505.91
2022-08-01T21:55:10.985Z,101510.66
2022-08-01T21:58:07.603Z,101514.53
2022-08-01T22:00:42.276Z,101515.16
2022-08-01T22:03:24.887Z,101510.34
2022-08-01T22:05:57.072Z,101515.44
2022-08-01T22:08:36.095Z,101522.56
2022-08-01T22:11:10.881Z,101517.31
2022-08-01T22:13:40.661Z,101524.94
2022-08-01T22:16:15.708Z,101526.09
2022-08-01T22:18:46.307Z,101529.31
2022-08-01T22:21:15.414Z,101524.09
2022-08-01T22:23:49.064Z,101521.28
2022-08-01T22:26:28.653Z,101518.88
2022-08-01T22:28:58.987Z,101521.13
2022-08-01T22:31:28.532Z,101527.22
2022-08-01T22:33:58.067Z,101528.25
2022-08-01T22:36:28.822Z,101524.28
2022-08-01T22:38:57.918Z,101519.78
2022-08-01T22:42:01.896Z,101518.06
2022-08-01T22:44:31.831Z,101523.75
2022-08-01T22:47:09.256Z,101519.59
2022-08-01T22:49:47.303Z,101523.88
2022-08-01T22:52:29.156Z,101523.00
2022-08-01T22:55:07.367Z,101524.72
2022-08-01T22:57:51.614Z,101516.50
2022-08-01T23:00:21.090Z,101524.19
2022-08-01T23:02:56.632Z,101516.50
2022-08-01T23:05:29.746Z,101521.91
2022-08-01T23:08:05.159Z,101516.63
2022-08-01T23:10:44.168Z,101519.59
2022-08-01T23:13:17.493Z,101513.34
2022-08-01T23:15:52.286Z,101507.94
2022-08-01T23:18:23.678Z,101502.91
2022-08-01T23:20:54.106Z,101509.13
2022-08-01T23:23:31.226Z,101501.66
2022-08-01T23:26:02.396Z,101498.06
2022-08-01T23:28:34.833Z,101501.31
2022-08-01T23:31:09.427Z,101496.44
2022-08-01T23:33:38.320Z,101500.84
2022-08-01T23:36:08.817Z,101491.69
2022-08-01T23:38:37.811Z,101498.22
2022-08-01T23:41:17.549Z,101492.63
2022-08-01T23:43:52.302Z,101490.97
2022-08-01T23:46:21.788Z,101489.75
2022-08-01T23:48:57.583Z,101484.13
2022-08-01T23:51:26.736Z,101480.97
2022-08-01T23:53:56.931Z,101490.28
2022-08-01T23:56:28.809Z,101487.63
2022-08-01T23:59:02.007Z,101487.31
